Time;durP1;ratioP1;P1;durP2;ratioP2;P2;SDS_P1;SDS_P2;PMS_P1;PMS_P2;Temp;Humidity;BMP_temperature;BMP_pressure;BME280_temperature;BME280_humidity;BME280_pressure;Samples;Min_cycle;Max_cycle;Signal;HPM_P1;HPM_P2
2023/03/15 00:01:36;;;;;;;12.93;11.90;;;;;;;3.97;70.66;91829.25;5070294;28;20178;-69
2023/03/15 00:04:04;;;;;;;14.23;13.13;;;;;;;3.88;71.67;91810.16;5070227;28;20174;-68
2023/03/15 00:06:32;;;;;;;14.23;13.03;;;;;;;3.89;71.73;91813.50;5069810;28;20299;-68
2023/03/15 00:08:58;;;;;;;14.57;13.37;;;;;;;3.82;72.00;91816.34;5070199;28;20197;-68
2023/03/15 00:11:24;;;;;;;13.67;12.47;;;;;;;3.81;71.96;91811.44;5067349;28;20277;-67
2023/03/15 00:13:50;;;;;;;15.93;14.27;;;;;;;3.80;72.11;91802.91;5070436;28;20223;-67
2023/03/15 00:16:16;;;;;;;20.47;17.30;;;;;;;3.82;70.62;91797.50;5069987;28;20232;-67
2023/03/15 00:18:41;;;;;;;19.63;15.40;;;;;;;3.95;70.21;91817.63;5070062;28;20189;-67
2023/03/15 00:21:07;;;;;;;15.33;13.60;;;;;;;3.74;72.70;91811.69;5068627;28;20214;-68
2023/03/15 00:23:32;;;;;;;18.10;14.67;;;;;;;3.88;72.45;91812.72;5069878;28;20188;-68
2023/03/15 00:25:57;;;;;;;18.07;16.20;;;;;;;3.87;72.85;91828.47;5070407;28;20236;-67
2023/03/15 00:28:23;;;;;;;18.33;16.23;;;;;;;3.96;72.37;91814.03;5070646;28;20231;-69
2023/03/15 00:30:48;;;;;;;19.73;17.67;;;;;;;4.00;72.16;91804.75;5070026;28;20279;-68
2023/03/15 00:33:15;;;;;;;19.03;16.93;;;;;;;4.08;72.33;91807.56;5069134;28;20296;-68
2023/03/15 00:35:42;;;;;;;19.00;17.00;;;;;;;4.11;71.93;91812.22;5069470;28;20229;-67
2023/03/15 00:38:08;;;;;;;22.30;18.33;;;;;;;4.27;71.14;91805.22;5070254;28;20197;-68
2023/03/15 00:40:36;;;;;;;21.07;17.30;;;;;;;4.30;71.23;91807.28;5069763;28;20245;-67
2023/03/15 00:43:02;;;;;;;18.03;16.17;;;;;;;4.30;71.80;91808.06;5069861;28;20193;-68
2023/03/15 00:45:28;;;;;;;16.37;14.57;;;;;;;4.27;72.58;91805.22;5068656;28;20228;-68
2023/03/15 00:47:54;;;;;;;18.40;13.97;;;;;;;4.24;71.85;91800.59;5069549;28;20221;-66
2023/03/15 00:50:20;;;;;;;14.63;13.33;;;;;;;4.27;71.61;91789.72;5067956;28;20224;-67
2023/03/15 00:52:46;;;;;;;12.80;11.67;;;;;;;4.38;72.04;91799.03;5069627;28;20205;-67
2023/03/15 00:55:15;;;;;;;15.73;13.17;;;;;;;4.36;71.13;91788.16;5068454;28;20268;-67
2023/03/15 00:57:42;;;;;;;16.27;14.70;;;;;;;4.49;70.47;91787.63;5069327;28;20812;-68
2023/03/15 01:00:13;;;;;;;16.70;15.30;;;;;;;4.47;69.41;91762.06;5069717;28;20237;-67
2023/03/15 01:02:39;;;;;;;12.97;11.97;;;;;;;4.63;67.24;91773.91;5069418;28;20189;-68
2023/03/15 01:05:07;;;;;;;13.57;12.37;;;;;;;4.83;65.88;91771.25;5069008;28;20224;-68
2023/03/15 01:07:33;;;;;;;12.97;11.87;;;;;;;4.85;67.61;91771.78;5068582;28;20189;-68
2023/03/15 01:10:00;;;;;;;13.17;12.17;;;;;;;4.77;68.83;91764.56;5069290;28;20245;-68
2023/03/15 01:12:26;;;;;;;12.40;11.47;;;;;;;4.76;69.54;91765.59;5069462;28;21093;-67
2023/03/15 01:14:52;;;;;;;11.90;11.20;;;;;;;4.60;70.80;91756.34;5069326;28;20229;-67
2023/03/15 01:17:17;;;;;;;11.90;10.87;;;;;;;4.64;70.38;91744.44;5069044;28;20180;-68
2023/03/15 01:19:42;;;;;;;12.53;11.33;;;;;;;4.66;72.03;91751.94;5069058;28;20292;-67
2023/03/15 01:22:08;;;;;;;11.63;10.83;;;;;;;4.79;70.50;91752.13;5068818;28;20184;-68
2023/03/15 01:24:33;;;;;;;12.60;11.50;;;;;;;4.76;71.59;91757.06;5068844;28;20236;-68
2023/03/15 01:26:58;;;;;;;11.93;10.87;;;;;;;4.84;71.39;91753.94;5069100;28;20196;-68
2023/03/15 01:29:24;;;;;;;12.40;11.40;;;;;;;4.74;71.44;91739.25;5069309;28;20198;-68
2023/03/15 01:31:49;;;;;;;12.83;11.60;;;;;;;4.70;72.39;91753.72;5068838;28;20193;-67
2023/03/15 01:34:15;;;;;;;12.37;11.40;;;;;;;4.65;73.35;91745.97;5068544;28;20216;-69
2023/03/15 01:36:40;;;;;;;12.60;11.57;;;;;;;4.67;72.93;91743.91;5068944;28;20227;-68
2023/03/15 01:39:05;;;;;;;14.47;12.27;;;;;;;4.66;71.12;91746.75;5069255;28;20202;-71
2023/03/15 01:41:31;;;;;;;12.17;11.20;;;;;;;4.53;71.94;91727.41;5067438;28;20229;-68
2023/03/15 01:43:56;;;;;;;12.80;11.57;;;;;;;4.55;72.14;91730.50;5068841;28;20190;-68
2023/03/15 01:46:33;;;;;;;12.43;11.07;;;;;;;4.54;72.31;91728.97;5068419;28;20209;-68
2023/03/15 01:49:11;;;;;;;11.80;10.83;;;;;;;4.51;72.52;91739.06;5069004;28;20193;-68
2023/03/15 01:52:12;;;;;;;11.90;10.90;;;;;;;4.65;71.91;91730.47;5067785;28;20213;-69
2023/03/15 01:54:44;;;;;;;12.27;11.37;;;;;;;4.56;71.68;91718.38;5066154;28;20249;-68
2023/03/15 01:57:15;;;;;;;13.50;12.27;;;;;;;4.35;71.90;91699.56;5068822;28;20291;-68
2023/03/15 02:00:00;;;;;;;14.23;12.77;;;;;;;4.46;72.85;91710.66;5068364;28;20241;-67
2023/03/15 02:02:27;;;;;;;12.63;11.73;;;;;;;4.55;73.13;91709.84;5068474;28;20193;-68
2023/03/15 02:05:05;;;;;;;12.53;11.73;;;;;;;4.51;73.38;91715.81;5067831;28;20268;-67
2023/03/15 02:07:33;;;;;;;12.73;11.53;;;;;;;4.29;75.09;91690.28;5068531;28;20182;-68
2023/03/15 02:10:05;;;;;;;12.13;11.13;;;;;;;4.57;74.11;91704.41;5068459;28;20261;-69
2023/03/15 02:12:34;;;;;;;13.10;12.07;;;;;;;4.49;74.15;91700.56;5068215;28;20244;-68
2023/03/15 02:15:01;;;;;;;12.77;11.77;;;;;;;4.36;74.54;91695.16;5067065;28;20261;-68
2023/03/15 02:17:37;;;;;;;11.93;11.23;;;;;;;4.27;74.91;91691.56;5068023;28;20213;-68
2023/03/15 02:20:13;;;;;;;10.73;10.03;;;;;;;4.16;76.67;91685.66;5067150;28;20231;-68
2023/03/15 02:22:57;;;;;;;12.33;11.53;;;;;;;4.12;75.79;91663.22;5068243;28;20200;-66
2023/03/15 02:25:31;;;;;;;12.40;11.40;;;;;;;4.30;74.79;91684.09;5068065;28;20236;-68
2023/03/15 02:27:57;;;;;;;16.60;11.90;;;;;;;4.18;75.66;91681.03;5068089;28;20196;-69
2023/03/15 02:30:23;;;;;;;12.50;11.53;;;;;;;4.15;74.60;91678.97;5067600;28;20255;-68
2023/03/15 02:32:49;;;;;;;13.83;12.63;;;;;;;4.28;72.41;91677.66;5068097;28;20217;-68
2023/03/15 02:35:27;;;;;;;12.87;11.87;;;;;;;4.23;73.01;91680.22;5067284;28;20292;-68
2023/03/15 02:37:52;;;;;;;12.20;11.20;;;;;;;4.12;74.58;91676.91;5068727;28;20239;-68
2023/03/15 02:40:20;;;;;;;11.23;10.43;;;;;;;4.24;73.80;91677.38;5066789;28;20224;-68
2023/03/15 02:42:50;;;;;;;10.87;10.07;;;;;;;4.15;74.17;91660.88;5068708;28;20207;-68
2023/03/15 02:45:15;;;;;;;12.00;11.20;;;;;;;4.18;73.54;91675.84;5067223;28;20237;-68
2023/03/15 02:47:41;;;;;;;12.33;11.43;;;;;;;4.21;72.81;91675.31;5068590;28;20174;-68
2023/03/15 02:50:07;;;;;;;13.53;12.33;;;;;;;4.02;72.39;91652.91;5067601;28;20225;-68
2023/03/15 02:52:33;;;;;;;13.80;12.60;;;;;;;4.20;72.94;91671.19;5068235;28;20192;-66
2023/03/15 02:54:58;;;;;;;13.03;11.77;;;;;;;4.17;73.39;91669.13;5068832;28;20225;-66
2023/03/15 02:57:23;;;;;;;14.47;13.17;;;;;;;4.08;73.76;91673.28;5072144;28;20216;-66
2023/03/15 02:59:53;;;;;;;13.10;11.90;;;;;;;3.88;74.70;91673.31;5072125;28;20229;-65
2023/03/15 03:02:19;;;;;;;13.30;12.13;;;;;;;3.82;74.89;91664.03;5071528;28;20262;-66
2023/03/15 03:04:45;;;;;;;13.07;11.97;;;;;;;3.89;74.70;91659.38;5071883;28;20225;-66
2023/03/15 03:07:10;;;;;;;13.90;12.60;;;;;;;3.83;74.94;91660.44;5072027;28;20248;-66
2023/03/15 03:09:36;;;;;;;15.20;13.60;;;;;;;3.65;76.05;91642.91;5071099;28;20283;-66
2023/03/15 03:12:01;;;;;;;13.93;12.63;;;;;;;3.78;74.95;91642.38;5071734;28;20217;-65
2023/03/15 03:14:27;;;;;;;14.43;13.13;;;;;;;3.73;75.37;91637.22;5070117;28;20208;-66
2023/03/15 03:16:52;;;;;;;13.70;12.50;;;;;;;3.58;76.56;91639.06;5071785;28;20216;-65
2023/03/15 03:19:18;;;;;;;13.07;11.77;;;;;;;3.75;76.42;91644.72;5071281;28;20212;-66
2023/03/15 03:21:43;;;;;;;18.20;11.63;;;;;;;3.75;75.29;91642.88;5071551;28;20199;-66
2023/03/15 03:24:09;;;;;;;17.13;13.37;;;;;;;3.59;76.54;91638.00;5071717;28;20255;-67
2023/03/15 03:26:36;;;;;;;13.33;12.13;;;;;;;3.73;76.67;91636.44;5070871;28;20244;-67
2023/03/15 03:29:04;;;;;;;13.73;12.53;;;;;;;3.71;76.70;91625.59;5072120;28;20196;-67
2023/03/15 03:31:32;;;;;;;12.20;11.17;;;;;;;3.77;76.97;91627.13;5070472;28;20224;-68
2023/03/15 03:33:58;;;;;;;13.63;12.23;;;;;;;3.81;74.39;91616.06;5071213;28;20888;-68
2023/03/15 03:36:24;;;;;;;14.07;12.70;;;;;;;3.87;73.20;91627.13;5070698;28;20217;-67
2023/03/15 03:38:50;;;;;;;13.50;12.30;;;;;;;4.13;72.99;91631.19;5071638;28;20201;-68
2023/03/15 03:41:16;;;;;;;13.60;12.50;;;;;;;4.11;74.46;91625.53;5070875;28;20233;-67
2023/03/15 03:43:42;;;;;;;14.30;13.00;;;;;;;4.10;75.25;91618.78;5070426;28;20174;-67
2023/03/15 03:46:07;;;;;;;12.63;11.50;;;;;;;4.24;74.60;91625.72;5070206;28;20225;-67
2023/03/15 03:48:34;;;;;;;13.57;12.10;;;;;;;4.25;75.44;91627.25;5071291;28;20209;-67
2023/03/15 03:50:59;;;;;;;12.43;11.53;;;;;;;4.27;75.80;91621.84;5070663;28;20237;-66
2023/03/15 03:53:24;;;;;;;11.97;11.10;;;;;;;4.21;75.38;91613.34;5070386;28;20224;-67
2023/03/15 03:55:50;;;;;;;13.73;12.53;;;;;;;4.27;74.46;91614.09;5070293;28;20229;-67
2023/03/15 03:58:15;;;;;;;12.70;11.63;;;;;;;4.23;74.05;91603.53;5071092;28;20262;-67
2023/03/15 04:00:41;;;;;;;13.30;12.10;;;;;;;4.37;74.51;91609.63;5070634;28;20225;-67
2023/03/15 04:03:07;;;;;;;14.00;12.53;;;;;;;4.34;74.66;91602.41;5070934;28;20205;-69
2023/03/15 04:05:33;;;;;;;12.60;11.63;;;;;;;4.27;75.13;91590.84;5069009;28;20227;-68
2023/03/15 04:07:58;;;;;;;11.63;10.77;;;;;;;4.27;75.42;91596.00;5071241;28;20201;-68
2023/03/15 04:10:27;;;;;;;11.47;10.47;;;;;;;4.35;76.37;91593.66;5069883;28;20316;-68
2023/03/15 04:12:54;;;;;;;12.27;11.17;;;;;;;4.43;74.68;91598.28;5070700;28;20217;-68
2023/03/15 04:15:21;;;;;;;12.63;11.63;;;;;;;4.40;73.93;91591.06;5069928;28;20213;-70
2023/03/15 04:17:47;;;;;;;11.83;10.83;;;;;;;4.27;73.88;91601.16;5070818;28;20184;-70
2023/03/15 04:20:16;;;;;;;13.10;11.87;;;;;;;4.37;73.22;91594.13;5068807;28;20217;-70
2023/03/15 04:22:48;;;;;;;13.23;12.10;;;;;;;4.33;74.71;91590.56;5070592;28;20189;-70
2023/03/15 04:25:14;;;;;;;12.57;11.33;;;;;;;4.31;75.46;91590.03;5068631;28;20292;-69
2023/03/15 04:27:40;;;;;;;12.93;11.93;;;;;;;4.34;75.13;91594.69;5069547;28;20180;-69
2023/03/15 04:30:05;;;;;;;12.13;11.03;;;;;;;4.37;74.71;91599.31;5069811;28;20229;-69
2023/03/15 04:32:31;;;;;;;12.40;11.27;;;;;;;4.40;73.63;91592.84;5070232;28;20184;-70
2023/03/15 04:34:56;;;;;;;11.93;10.73;;;;;;;4.38;73.94;91580.19;5069047;28;20229;-70
2023/03/15 04:37:22;;;;;;;11.90;10.83;;;;;;;4.43;73.49;91577.59;5069076;28;20189;-70
2023/03/15 04:39:47;;;;;;;12.30;11.17;;;;;;;4.55;73.78;91590.19;5068697;28;20248;-71
2023/03/15 04:42:12;;;;;;;11.63;10.37;;;;;;;4.55;73.54;91585.81;5069256;28;20193;-70
2023/03/15 04:44:38;;;;;;;11.43;10.53;;;;;;;4.50;73.38;91592.78;5069426;28;20240;-74
2023/03/15 04:47:03;;;;;;;12.47;11.33;;;;;;;4.57;73.70;91590.69;5068822;28;20838;-69
2023/03/15 04:49:30;;;;;;;12.97;11.93;;;;;;;4.49;73.10;91588.66;5069039;28;20241;-67
2023/03/15 04:51:56;;;;;;;13.47;12.07;;;;;;;4.61;71.77;91584.72;5069267;28;20199;-67
2023/03/15 04:54:22;;;;;;;16.13;13.33;;;;;;;4.54;70.87;91586.84;5068577;28;20219;-67
2023/03/15 04:56:47;;;;;;;15.53;13.40;;;;;;;4.70;69.62;91577.19;5069483;28;20190;-67
2023/03/15 04:59:13;;;;;;;13.50;12.10;;;;;;;4.80;70.72;91597.78;5068727;28;20201;-68
2023/03/15 05:01:38;;;;;;;13.27;11.47;;;;;;;4.61;72.57;91594.28;5069937;28;20239;-67
2023/03/15 05:04:03;;;;;;;12.80;11.70;;;;;;;4.51;73.69;91589.19;5068685;28;20185;-69
2023/03/15 05:06:29;;;;;;;13.40;12.03;;;;;;;4.51;74.24;91600.28;5068352;28;20255;-67
2023/03/15 05:08:55;;;;;;;13.37;12.03;;;;;;;4.64;74.13;91601.50;5068259;28;20204;-70
2023/03/15 05:11:20;;;;;;;13.20;11.93;;;;;;;4.70;73.75;91598.63;5068088;28;20213;-69
2023/03/15 05:13:45;;;;;;;13.73;12.43;;;;;;;4.78;74.20;91590.31;5067983;28;20208;-70
2023/03/15 05:16:11;;;;;;;17.57;13.37;;;;;;;4.64;73.46;91579.03;5068177;28;20221;-71
2023/03/15 05:18:37;;;;;;;16.17;13.37;;;;;;;4.87;72.35;91586.09;5068746;28;20189;-70
2023/03/15 05:21:04;;;;;;;17.13;13.40;;;;;;;4.82;72.95;91588.72;5067516;28;20237;-71
2023/03/15 05:23:32;;;;;;;20.40;14.37;;;;;;;4.90;72.59;91582.97;5068133;28;20194;-69
2023/03/15 05:25:58;;;;;;;16.77;14.60;;;;;;;4.96;71.72;91587.06;5067598;28;20256;-73
2023/03/15 05:28:25;;;;;;;15.43;13.93;;;;;;;5.03;72.36;91576.44;5066044;28;20285;-68
2023/03/15 05:30:51;;;;;;;17.80;13.17;;;;;;;5.14;73.06;91587.50;5068678;28;20229;-70
2023/03/15 05:33:17;;;;;;;14.37;12.93;;;;;;;5.16;73.57;91580.22;5067776;28;20212;-68
2023/03/15 05:35:43;;;;;;;15.20;13.63;;;;;;;5.24;74.17;91583.00;5066649;28;20219;-67
2023/03/15 05:38:13;;;;;;;16.30;12.47;;;;;;;5.26;72.87;91580.16;5067326;28;20257;-68
2023/03/15 05:40:40;;;;;;;21.80;13.50;;;;;;;5.23;73.73;91575.53;5068033;28;20672;-68
2023/03/15 05:43:06;;;;;;;18.13;15.27;;;;;;;5.45;70.22;91581.03;5068457;28;20260;-69
2023/03/15 05:45:31;;;;;;;20.27;17.43;;;;;;;5.59;68.57;91580.09;5068339;28;20280;-68
2023/03/15 05:47:56;;;;;;;25.23;17.60;;;;;;;5.56;68.74;91579.88;5068468;28;20205;-69
2023/03/15 05:50:22;;;;;;;20.30;16.27;;;;;;;5.46;68.78;91574.81;5067463;28;20252;-70
2023/03/15 05:52:50;;;;;;;25.87;16.30;;;;;;;5.55;66.34;91586.09;5067424;28;20219;-68
2023/03/15 05:55:15;;;;;;;20.07;16.50;;;;;;;5.49;66.41;91589.78;5066240;28;20232;-68
2023/03/15 05:57:41;;;;;;;22.60;17.40;;;;;;;5.59;66.84;91576.75;5067602;28;20193;-69
2023/03/15 06:00:09;;;;;;;21.83;17.17;;;;;;;5.73;66.13;91588.00;5067199;28;20225;-68
2023/03/15 06:02:34;;;;;;;18.93;16.93;;;;;;;5.69;66.23;91579.25;5067893;28;20193;-68
2023/03/15 06:05:00;;;;;;;19.60;17.60;;;;;;;6.01;65.24;91595.00;5065816;28;20244;-67
2023/03/15 06:07:25;;;;;;;19.53;16.93;;;;;;;6.25;63.04;91577.63;5067870;28;20220;-68
2023/03/15 06:09:50;;;;;;;22.37;16.70;;;;;;;6.71;61.38;91586.38;5067743;28;20244;-68
2023/03/15 06:12:16;;;;;;;26.93;24.30;;;;;;;7.04;61.08;91577.63;5066906;28;20181;-68
2023/03/15 06:14:42;;;;;;;24.83;15.93;;;;;;;7.28;60.20;91575.72;5067764;28;20251;-69
2023/03/15 06:17:07;;;;;;;23.03;16.23;;;;;;;7.39;59.60;91571.88;5068344;28;20252;-69
2023/03/15 06:19:32;;;;;;;20.20;16.50;;;;;;;7.47;58.77;91584.22;5067718;28;20240;-67
2023/03/15 06:21:58;;;;;;;22.40;17.40;;;;;;;7.47;57.74;91573.84;5068535;28;20201;-69
2023/03/15 06:24:24;;;;;;;25.30;17.83;;;;;;;7.73;57.11;91587.97;5067168;28;20200;-69
2023/03/15 06:26:49;;;;;;;22.47;17.10;;;;;;;7.45;57.03;91565.56;5067706;28;20626;-68
2023/03/15 06:29:16;;;;;;;23.33;17.20;;;;;;;7.34;59.23;91574.56;5068589;28;20245;-73
2023/03/15 06:31:41;;;;;;;22.10;17.00;;;;;;;7.03;58.77;91563.13;5071272;28;20173;-73
2023/03/15 06:34:07;;;;;;;23.53;17.00;;;;;;;7.41;57.56;91579.41;5072151;28;20663;-72
2023/03/15 06:36:33;;;;;;;17.77;15.90;;;;;;;7.59;56.63;91570.78;5071617;28;20209;-73
2023/03/15 06:38:58;;;;;;;17.43;15.27;;;;;;;7.49;56.28;91582.13;5072853;28;20189;-73
2023/03/15 06:41:23;;;;;;;22.13;15.40;;;;;;;7.87;55.10;91580.97;5071808;28;20274;-73
2023/03/15 06:43:49;;;;;;;18.93;15.23;;;;;;;7.99;54.10;91580.47;5072286;28;20209;-72
2023/03/15 06:46:14;;;;;;;17.43;14.63;;;;;;;7.92;53.12;91575.66;5070455;28;20220;-72
2023/03/15 06:48:41;;;;;;;15.90;14.30;;;;;;;7.79;53.73;91591.22;5071842;28;20209;-73
2023/03/15 06:51:06;;;;;;;19.33;15.57;;;;;;;7.86;55.08;91586.44;5071155;28;20285;-72
2023/03/15 06:53:32;;;;;;;16.03;14.37;;;;;;;7.93;55.54;91576.44;5072333;28;20219;-72
2023/03/15 06:55:57;;;;;;;14.63;13.13;;;;;;;8.19;54.01;91580.88;5071500;28;20828;-72
2023/03/15 06:58:22;;;;;;;16.83;15.23;;;;;;;8.00;53.36;91566.41;5071942;28;20208;-72
2023/03/15 07:00:49;;;;;;;19.93;14.00;;;;;;;7.75;54.59;91559.84;5071558;28;20295;-71
2023/03/15 07:03:14;;;;;;;16.60;14.30;;;;;;;7.71;54.96;91573.69;5070954;28;20188;-71
2023/03/15 07:05:40;;;;;;;15.17;13.07;;;;;;;7.81;54.66;91569.09;5071181;28;20240;-73
2023/03/15 07:08:06;;;;;;;16.50;14.17;;;;;;;7.95;54.21;91575.06;5071707;28;20253;-73
2023/03/15 07:10:31;;;;;;;17.30;14.93;;;;;;;8.12;51.96;91549.28;5069948;28;20232;-73
2023/03/15 07:12:56;;;;;;;18.50;15.20;;;;;;;7.94;52.76;91560.56;5071656;28;20938;-72
2023/03/15 07:15:22;;;;;;;18.20;14.83;;;;;;;8.00;53.40;91569.00;5070857;28;20225;-72
2023/03/15 07:17:47;;;;;;;14.67;13.27;;;;;;;8.07;53.48;91526.00;5071745;28;20233;-73
2023/03/15 07:20:13;;;;;;;13.10;12.00;;;;;;;8.48;51.80;91572.81;5070976;28;20254;-72
2023/03/15 07:22:38;;;;;;;18.63;12.83;;;;;;;8.65;51.49;91582.63;5071577;28;20228;-73
2023/03/15 07:25:06;;;;;;;14.43;13.03;;;;;;;8.59;54.09;91573.38;5070613;28;20288;-73
2023/03/15 07:27:31;;;;;;;13.37;11.90;;;;;;;8.03;52.73;91566.63;5071961;28;20189;-73
2023/03/15 07:29:57;;;;;;;14.00;12.80;;;;;;;8.73;50.15;91574.13;5070603;28;20225;-73
2023/03/15 07:32:22;;;;;;;15.13;11.83;;;;;;;9.12;49.99;91571.72;5071548;28;20204;-72
2023/03/15 07:34:47;;;;;;;12.67;11.77;;;;;;;9.41;48.93;91579.91;5069231;28;20233;-73
2023/03/15 07:37:13;;;;;;;12.70;11.73;;;;;;;9.58;48.49;91559.97;5071633;28;20193;-73
2023/03/15 07:39:38;;;;;;;12.93;11.57;;;;;;;9.67;48.35;91579.00;5070481;28;20224;-72
2023/03/15 07:42:06;;;;;;;13.23;12.20;;;;;;;9.41;48.71;91579.91;5070053;28;20186;-71
2023/03/15 07:44:31;;;;;;;12.57;11.57;;;;;;;8.93;50.17;91569.28;5070524;28;20259;-73
2023/03/15 07:46:56;;;;;;;12.77;11.60;;;;;;;8.98;48.77;91574.34;5070393;28;20245;-72
2023/03/15 07:49:22;;;;;;;12.80;11.67;;;;;;;9.36;48.49;91559.19;5070200;28;20331;-73
2023/03/15 07:51:47;;;;;;;12.10;10.93;;;;;;;9.13;49.36;91562.84;5070378;28;20208;-72
2023/03/15 07:54:13;;;;;;;12.37;11.37;;;;;;;9.09;49.37;91567.13;5070404;28;20222;-74
2023/03/15 07:56:38;;;;;;;12.67;11.67;;;;;;;8.68;48.64;91561.22;5070629;28;20173;-73
2023/03/15 07:59:03;;;;;;;12.30;11.13;;;;;;;9.13;48.81;91573.25;5070720;28;20194;-73
2023/03/15 08:01:29;;;;;;;11.53;10.63;;;;;;;9.33;47.60;91578.00;5070188;28;20228;-73
2023/03/15 08:03:54;;;;;;;14.30;12.17;;;;;;;9.44;47.61;91561.84;5069608;28;20196;-72
2023/03/15 08:06:19;;;;;;;12.83;11.30;;;;;;;9.64;47.43;91568.41;5069751;28;20230;-73
2023/03/15 08:08:45;;;;;;;12.47;11.47;;;;;;;9.87;46.36;91577.72;5070558;28;20260;-72
2023/03/15 08:11:11;;;;;;;13.77;11.33;;;;;;;9.62;47.07;91562.72;5070722;28;20223;-73
2023/03/15 08:13:36;;;;;;;12.23;11.23;;;;;;;9.17;47.04;91569.78;5070598;28;20204;-72
2023/03/15 08:16:02;;;;;;;15.93;11.83;;;;;;;9.54;47.33;91545.22;5070386;28;20226;-72
2023/03/15 08:18:27;;;;;;;15.23;12.13;;;;;;;9.41;48.28;91552.03;5070534;28;20216;-71
2023/03/15 08:20:53;;;;;;;13.77;12.50;;;;;;;9.29;48.16;91535.41;5070015;28;20297;-73
2023/03/15 08:23:20;;;;;;;14.67;13.37;;;;;;;10.07;47.80;91551.19;5069989;28;20258;-72
2023/03/15 08:25:47;;;;;;;13.20;12.10;;;;;;;10.47;45.44;91560.53;5069882;28;20320;-72
2023/03/15 08:28:13;;;;;;;17.30;12.97;;;;;;;10.35;44.81;91551.75;5069952;28;20204;-73
2023/03/15 08:30:39;;;;;;;13.20;11.90;;;;;;;10.29;46.47;91537.31;5070405;28;20726;-71
2023/03/15 08:33:06;;;;;;;17.47;11.73;;;;;;;10.21;45.34;91536.19;5070833;28;20217;-72
2023/03/15 08:35:33;;;;;;;15.40;12.70;;;;;;;10.19;45.66;91543.56;5069797;28;20217;-73
2023/03/15 08:37:59;;;;;;;16.20;13.20;;;;;;;10.32;45.29;91555.72;5070351;28;20215;-73
2023/03/15 08:40:24;;;;;;;13.97;12.17;;;;;;;10.35;44.98;91557.72;5069899;28;20225;-73
2023/03/15 08:42:51;;;;;;;14.80;13.20;;;;;;;9.90;45.60;91545.84;5069888;28;20212;-72
2023/03/15 08:45:16;;;;;;;13.13;11.83;;;;;;;10.28;45.10;91525.34;5067745;28;20229;-73
2023/03/15 08:47:42;;;;;;;13.37;11.87;;;;;;;10.31;45.45;91529.94;5069514;28;20227;-73
2023/03/15 08:50:11;;;;;;;13.63;12.00;;;;;;;10.56;45.49;91548.28;5069277;28;20221;-73
2023/03/15 08:52:37;;;;;;;13.10;12.03;;;;;;;10.77;45.18;91551.84;5068435;28;20193;-73
2023/03/15 08:55:03;;;;;;;12.23;11.13;;;;;;;10.74;43.97;91562.91;5069762;28;20265;-72
2023/03/15 08:57:31;;;;;;;13.37;12.37;;;;;;;10.67;44.48;91567.81;5069958;28;20198;-72
2023/03/15 08:59:57;;;;;;;13.67;12.17;;;;;;;10.41;44.23;91553.91;5068660;28;20239;-72
2023/03/15 09:02:22;;;;;;;23.70;13.57;;;;;;;10.07;44.71;91545.19;5070257;28;20197;-73
2023/03/15 09:04:48;;;;;;;14.70;13.17;;;;;;;10.53;44.62;91561.94;5068890;28;20221;-73
2023/03/15 09:07:14;;;;;;;14.67;12.37;;;;;;;10.97;43.18;91555.72;5069850;28;20265;-72
2023/03/15 09:09:40;;;;;;;13.93;11.57;;;;;;;11.23;42.34;91553.88;5069244;28;20226;-72
2023/03/15 09:12:06;;;;;;;15.83;12.20;;;;;;;11.07;42.71;91547.56;5069301;28;20181;-73
2023/03/15 09:14:31;;;;;;;13.07;11.97;;;;;;;10.97;43.57;91551.25;5068870;28;20221;-73
2023/03/15 09:16:57;;;;;;;12.30;11.20;;;;;;;10.64;43.23;91533.72;5068236;28;20182;-72
2023/03/15 09:19:22;;;;;;;13.00;12.00;;;;;;;10.73;43.23;91550.94;5068895;28;20200;-73
2023/03/15 09:21:48;;;;;;;12.27;11.37;;;;;;;10.93;43.48;91554.78;5068539;28;20198;-72
2023/03/15 09:24:13;;;;;;;14.53;12.03;;;;;;;10.92;43.26;91561.88;5068517;28;20185;-72
2023/03/15 09:26:39;;;;;;;12.90;11.80;;;;;;;10.58;44.01;91558.41;5068971;28;20190;-72
2023/03/15 09:29:06;;;;;;;12.83;11.70;;;;;;;10.78;43.64;91561.22;5069228;28;20178;-72
2023/03/15 09:31:32;;;;;;;20.00;12.97;;;;;;;10.92;43.73;91555.88;5069139;28;20820;-72
2023/03/15 09:33:58;;;;;;;14.40;12.13;;;;;;;11.25;44.06;91554.34;5068946;28;20222;-73
2023/03/15 09:36:23;;;;;;;19.20;14.23;;;;;;;11.45;43.24;91538.06;5068151;28;20255;-73
2023/03/15 09:38:49;;;;;;;21.90;13.83;;;;;;;11.69;42.77;91548.81;5068963;28;20195;-73
2023/03/15 09:41:46;;;;;;;12.53;11.63;;;;;;;11.64;42.02;91535.13;5068458;28;20213;-73
2023/03/15 09:44:20;;;;;;;13.70;12.37;;;;;;;11.91;42.20;91545.22;5064037;28;20238;-71
2023/03/15 09:46:51;;;;;;;13.87;11.83;;;;;;;11.96;42.96;91545.06;5067939;28;20181;-73
2023/03/15 09:49:30;;;;;;;12.30;11.27;;;;;;;12.16;41.14;91533.91;5068583;28;20205;-68
2023/03/15 09:52:02;;;;;;;13.33;12.33;;;;;;;11.86;41.74;91522.63;5068463;28;20188;-67
2023/03/15 09:54:43;;;;;;;13.73;12.43;;;;;;;11.06;43.90;91525.16;5067485;28;20205;-69
2023/03/15 09:57:17;;;;;;;12.40;11.50;;;;;;;11.91;42.85;91522.44;5068378;28;20197;-67
2023/03/15 09:59:46;;;;;;;13.33;12.20;;;;;;;11.82;43.04;91523.56;5068054;28;20241;-67
2023/03/15 10:02:17;;;;;;;16.00;11.77;;;;;;;12.40;42.11;91527.06;5069217;28;20196;-67
2023/03/15 10:04:46;;;;;;;21.93;12.50;;;;;;;12.16;41.19;91532.06;5070372;28;20238;-67
2023/03/15 10:07:14;;;;;;;11.80;10.80;;;;;;;11.78;41.55;91530.50;5072372;28;20197;-69
2023/03/15 10:09:39;;;;;;;12.10;10.43;;;;;;;11.46;42.57;91523.91;5072137;28;20228;-70
2023/03/15 10:12:11;;;;;;;12.33;11.30;;;;;;;11.64;42.72;91524.69;5072930;28;20205;-67
2023/03/15 10:15:01;;;;;;;12.07;10.87;;;;;;;11.78;42.06;91527.88;5072169;28;20230;-68
2023/03/15 10:17:45;;;;;;;12.40;11.50;;;;;;;11.73;42.97;91536.66;5072717;28;20190;-69
2023/03/15 10:20:17;;;;;;;13.50;12.10;;;;;;;11.56;41.70;91533.28;5070612;28;20235;-67
2023/03/15 10:23:18;;;;;;;11.57;10.60;;;;;;;11.86;42.51;91537.56;5072528;28;20190;-68
2023/03/15 10:25:46;;;;;;;13.17;11.97;;;;;;;12.20;41.43;91537.44;5029556;28;20257;-70
2023/03/15 10:28:28;;;;;;;13.97;12.63;;;;;;;12.02;41.93;91535.94;5059450;28;20199;-69
2023/03/15 10:30:58;;;;;;;12.23;11.03;;;;;;;11.89;41.98;91516.75;5071878;28;21483;-71
2023/03/15 10:33:37;;;;;;;13.43;12.20;;;;;;;11.89;41.77;91510.78;5069753;28;20254;-68
2023/03/15 10:36:14;;;;;;;11.60;10.37;;;;;;;11.99;42.22;91528.72;5071036;28;20225;-72
2023/03/15 10:38:40;;;;;;;14.13;12.77;;;;;;;11.72;43.73;91526.50;5071474;28;20208;-72
2023/03/15 10:41:06;;;;;;;12.30;11.40;;;;;;;11.43;42.98;91510.69;5071035;28;20231;-76
2023/03/15 10:43:36;;;;;;;12.97;11.87;;;;;;;11.53;42.79;91529.44;5070813;28;20195;-71
2023/03/15 10:46:20;;;;;;;12.80;11.60;;;;;;;11.58;42.71;91520.66;5069166;28;20229;-68
2023/03/15 10:49:09;;;;;;;12.70;11.63;;;;;;;11.51;43.34;91515.13;5071591;28;20204;-69
2023/03/15 10:51:42;;;;;;;13.03;12.03;;;;;;;11.61;43.61;91518.19;5070908;28;20239;-71
2023/03/15 10:54:11;;;;;;;12.63;11.37;;;;;;;11.34;45.32;91524.53;5071686;28;20209;-69
2023/03/15 10:56:44;;;;;;;17.43;11.97;;;;;;;11.68;44.06;91526.34;5070958;28;20211;-72
2023/03/15 10:59:24;;;;;;;11.20;10.27;;;;;;;11.77;44.74;91510.63;5070925;28;20181;-77
2023/03/15 11:02:16;;;;;;;12.37;11.07;;;;;;;11.73;43.01;91522.81;5072202;28;20185;-76
2023/03/15 11:05:03;;;;;;;11.70;10.67;;;;;;;11.50;43.68;91511.00;5070243;28;20309;-76
2023/03/15 11:07:33;;;;;;;12.23;10.73;;;;;;;11.46;42.75;91512.66;5070099;28;20203;-76
2023/03/15 11:10:01;;;;;;;14.13;12.13;;;;;;;11.14;43.44;91512.09;5069693;28;20378;-76
2023/03/15 11:12:29;;;;;;;11.50;10.50;;;;;;;11.18;43.39;91513.03;5071010;28;20193;-75
2023/03/15 11:15:14;;;;;;;11.43;10.47;;;;;;;10.96;43.53;91494.88;5070254;28;20240;-76
2023/03/15 11:17:48;;;;;;;11.83;11.03;;;;;;;10.88;45.22;91505.34;5070804;28;20251;-77
2023/03/15 11:20:19;;;;;;;11.67;10.67;;;;;;;10.82;44.26;91503.94;5070293;28;20251;-75
2023/03/15 11:22:45;;;;;;;10.83;9.90;;;;;;;11.20;43.83;91487.38;5067166;28;20178;-76
2023/03/15 11:25:14;;;;;;;11.17;10.17;;;;;;;11.46;44.22;91499.59;5071010;28;20255;-76
2023/03/15 11:27:49;;;;;;;12.70;11.47;;;;;;;11.82;43.52;91506.03;5070418;28;20243;-76